Terminal Aerodrome Forecast
Issued by NWS Bismarck, ND

Home | Current Version | Previous Version | Graphics & Text | Print | Product List | Glossary On
Versions: 1 2 3 4 5 6 7 8 9 10 11 12 13 14 15 16 17 18 19 20
000
FTUS43 KBIS 240522
TAFBIS
TAF
KBIS 240522Z 2406/2506 28005KT P6SM FEW250
     FM241500 29015G25KT P6SM SCT035
     FM241800 29017G27KT P6SM BKN050
     FM250000 30014G21KT P6SM BKN040
     FM250500 31009KT P6SM BKN025=

USA.gov is the U.S. government's official web portal to all federal, state and local government web resources and services.